sensor_id;sensor_type;location;lat;lon;timestamp;P1;durP1;ratioP1;P2;durP2;ratioP2
31112;SDS011;17763;48.730;9.136;2023-02-23T00:00:23;23.88;;;16.35;;
31112;SDS011;17763;48.730;9.136;2023-02-23T00:02:56;22.55;;;15.00;;
31112;SDS011;17763;48.730;9.136;2023-02-23T00:05:25;24.48;;;16.35;;
31112;SDS011;17763;48.730;9.136;2023-02-23T00:07:56;23.23;;;16.27;;
31112;SDS011;17763;48.730;9.136;2023-02-23T00:10:24;24.23;;;16.05;;
31112;SDS011;17763;48.730;9.136;2023-02-23T00:12:59;25.17;;;16.88;;
31112;SDS011;17763;48.730;9.136;2023-02-23T00:15:25;23.10;;;15.98;;
31112;SDS011;17763;48.730;9.136;2023-02-23T00:17:55;26.10;;;15.95;;
31112;SDS011;17763;48.730;9.136;2023-02-23T00:20:25;26.13;;;17.77;;
31112;SDS011;17763;48.730;9.136;2023-02-23T00:22:56;25.00;;;16.17;;
31112;SDS011;17763;48.730;9.136;2023-02-23T00:25:22;22.23;;;15.77;;
31112;SDS011;17763;48.730;9.136;2023-02-23T00:27:50;23.13;;;16.42;;
31112;SDS011;17763;48.730;9.136;2023-02-23T00:30:17;23.00;;;16.45;;
31112;SDS011;17763;48.730;9.136;2023-02-23T00:32:43;22.27;;;16.25;;
31112;SDS011;17763;48.730;9.136;2023-02-23T00:35:12;22.33;;;16.00;;
31112;SDS011;17763;48.730;9.136;2023-02-23T00:37:44;22.60;;;15.73;;
31112;SDS011;17763;48.730;9.136;2023-02-23T00:40:11;21.02;;;15.23;;
31112;SDS011;17763;48.730;9.136;2023-02-23T00:42:40;22.75;;;15.40;;
31112;SDS011;17763;48.730;9.136;2023-02-23T00:45:16;19.08;;;14.85;;
31112;SDS011;17763;48.730;9.136;2023-02-23T00:47:42;23.65;;;16.65;;
31112;SDS011;17763;48.730;9.136;2023-02-23T00:50:13;27.27;;;16.83;;
31112;SDS011;17763;48.730;9.136;2023-02-23T00:52:41;23.35;;;16.77;;
31112;SDS011;17763;48.730;9.136;2023-02-23T00:55:13;22.63;;;16.15;;
31112;SDS011;17763;48.730;9.136;2023-02-23T00:57:39;22.55;;;16.45;;
31112;SDS011;17763;48.730;9.136;2023-02-23T01:00:06;21.15;;;15.65;;
31112;SDS011;17763;48.730;9.136;2023-02-23T01:02:45;26.25;;;17.48;;
31112;SDS011;17763;48.730;9.136;2023-02-23T01:05:19;23.75;;;17.20;;
31112;SDS011;17763;48.730;9.136;2023-02-23T01:07:47;26.70;;;18.80;;
31112;SDS011;17763;48.730;9.136;2023-02-23T01:10:13;25.40;;;18.00;;
31112;SDS011;17763;48.730;9.136;2023-02-23T01:12:50;24.08;;;17.55;;
31112;SDS011;17763;48.730;9.136;2023-02-23T01:15:19;26.48;;;19.52;;
31112;SDS011;17763;48.730;9.136;2023-02-23T01:17:47;21.90;;;17.02;;
31112;SDS011;17763;48.730;9.136;2023-02-23T01:22:52;23.73;;;16.58;;
31112;SDS011;17763;48.730;9.136;2023-02-23T01:25:20;26.88;;;17.55;;
31112;SDS011;17763;48.730;9.136;2023-02-23T01:27:45;23.85;;;17.40;;
31112;SDS011;17763;48.730;9.136;2023-02-23T01:30:13;27.85;;;18.25;;
31112;SDS011;17763;48.730;9.136;2023-02-23T01:32:39;26.38;;;17.02;;
31112;SDS011;17763;48.730;9.136;2023-02-23T01:35:08;25.52;;;18.55;;
31112;SDS011;17763;48.730;9.136;2023-02-23T01:37:37;23.05;;;17.08;;
31112;SDS011;17763;48.730;9.136;2023-02-23T01:40:04;28.95;;;18.70;;
31112;SDS011;17763;48.730;9.136;2023-02-23T01:42:53;24.00;;;17.10;;
31112;SDS011;17763;48.730;9.136;2023-02-23T01:45:39;23.48;;;16.83;;
31112;SDS011;17763;48.730;9.136;2023-02-23T01:48:07;26.35;;;17.60;;
31112;SDS011;17763;48.730;9.136;2023-02-23T01:50:59;25.65;;;18.67;;
31112;SDS011;17763;48.730;9.136;2023-02-23T01:53:31;27.83;;;18.08;;
31112;SDS011;17763;48.730;9.136;2023-02-23T01:56:08;26.75;;;17.42;;
31112;SDS011;17763;48.730;9.136;2023-02-23T01:58:43;27.23;;;17.35;;
31112;SDS011;17763;48.730;9.136;2023-02-23T02:01:10;28.00;;;19.02;;
31112;SDS011;17763;48.730;9.136;2023-02-23T02:03:39;25.70;;;17.85;;
31112;SDS011;17763;48.730;9.136;2023-02-23T02:06:13;28.77;;;18.90;;
31112;SDS011;17763;48.730;9.136;2023-02-23T02:08:44;23.52;;;17.02;;
31112;SDS011;17763;48.730;9.136;2023-02-23T02:11:21;24.65;;;17.45;;
31112;SDS011;17763;48.730;9.136;2023-02-23T02:14:28;24.17;;;17.25;;
31112;SDS011;17763;48.730;9.136;2023-02-23T02:39:46;21.55;;;13.85;;
31112;SDS011;17763;48.730;9.136;2023-02-23T02:42:40;19.27;;;14.23;;
31112;SDS011;17763;48.730;9.136;2023-02-23T02:48:47;18.05;;;13.18;;
31112;SDS011;17763;48.730;9.136;2023-02-23T02:56:36;20.27;;;13.65;;
31112;SDS011;17763;48.730;9.136;2023-02-23T02:59:11;19.23;;;13.23;;
31112;SDS011;17763;48.730;9.136;2023-02-23T03:02:00;33.22;;;21.33;;
31112;SDS011;17763;48.730;9.136;2023-02-23T03:04:49;20.83;;;16.33;;
31112;SDS011;17763;48.730;9.136;2023-02-23T03:07:54;20.35;;;13.35;;
31112;SDS011;17763;48.730;9.136;2023-02-23T03:13:46;19.58;;;12.65;;
31112;SDS011;17763;48.730;9.136;2023-02-23T03:17:11;20.10;;;12.88;;
31112;SDS011;17763;48.730;9.136;2023-02-23T03:21:04;17.20;;;11.50;;
31112;SDS011;17763;48.730;9.136;2023-02-23T03:32:24;19.02;;;11.88;;
31112;SDS011;17763;48.730;9.136;2023-02-23T03:35:24;14.40;;;11.32;;
31112;SDS011;17763;48.730;9.136;2023-02-23T03:41:30;13.45;;;10.23;;
31112;SDS011;17763;48.730;9.136;2023-02-23T03:44:18;17.05;;;11.07;;
31112;SDS011;17763;48.730;9.136;2023-02-23T03:47:07;13.63;;;10.25;;
31112;SDS011;17763;48.730;9.136;2023-02-23T03:49:54;13.75;;;10.07;;
31112;SDS011;17763;48.730;9.136;2023-02-23T03:52:50;15.80;;;10.68;;
31112;SDS011;17763;48.730;9.136;2023-02-23T03:55:39;16.42;;;11.63;;
31112;SDS011;17763;48.730;9.136;2023-02-23T03:58:36;15.27;;;10.50;;
31112;SDS011;17763;48.730;9.136;2023-02-23T04:01:25;16.13;;;10.77;;
31112;SDS011;17763;48.730;9.136;2023-02-23T04:04:11;13.13;;;9.85;;
31112;SDS011;17763;48.730;9.136;2023-02-23T04:07:01;16.65;;;10.13;;
31112;SDS011;17763;48.730;9.136;2023-02-23T04:09:49;15.13;;;9.60;;
31112;SDS011;17763;48.730;9.136;2023-02-23T04:12:38;19.23;;;10.40;;
31112;SDS011;17763;48.730;9.136;2023-02-23T04:15:40;13.25;;;10.23;;
31112;SDS011;17763;48.730;9.136;2023-02-23T04:18:36;13.68;;;10.05;;
31112;SDS011;17763;48.730;9.136;2023-02-23T04:21:10;14.23;;;9.50;;
31112;SDS011;17763;48.730;9.136;2023-02-23T04:23:36;16.27;;;10.52;;
31112;SDS011;17763;48.730;9.136;2023-02-23T04:26:04;14.25;;;9.27;;
31112;SDS011;17763;48.730;9.136;2023-02-23T04:28:30;15.93;;;11.10;;
31112;SDS011;17763;48.730;9.136;2023-02-23T04:30:56;16.27;;;10.43;;
31112;SDS011;17763;48.730;9.136;2023-02-23T04:33:21;16.00;;;11.18;;
31112;SDS011;17763;48.730;9.136;2023-02-23T04:35:50;15.18;;;10.45;;
31112;SDS011;17763;48.730;9.136;2023-02-23T04:38:17;14.70;;;10.68;;
31112;SDS011;17763;48.730;9.136;2023-02-23T04:40:43;18.55;;;10.73;;
31112;SDS011;17763;48.730;9.136;2023-02-23T04:43:12;12.70;;;9.82;;
31112;SDS011;17763;48.730;9.136;2023-02-23T04:45:39;14.23;;;9.80;;
31112;SDS011;17763;48.730;9.136;2023-02-23T04:48:05;15.55;;;10.20;;
31112;SDS011;17763;48.730;9.136;2023-02-23T04:50:31;15.18;;;10.85;;
31112;SDS011;17763;48.730;9.136;2023-02-23T04:52:57;16.40;;;10.15;;
31112;SDS011;17763;48.730;9.136;2023-02-23T04:55:23;13.75;;;10.73;;
31112;SDS011;17763;48.730;9.136;2023-02-23T04:57:55;14.95;;;10.75;;
31112;SDS011;17763;48.730;9.136;2023-02-23T05:00:23;17.23;;;11.32;;
31112;SDS011;17763;48.730;9.136;2023-02-23T05:02:49;13.50;;;10.05;;
31112;SDS011;17763;48.730;9.136;2023-02-23T05:05:17;13.10;;;9.63;;
31112;SDS011;17763;48.730;9.136;2023-02-23T05:07:43;11.40;;;8.70;;
31112;SDS011;17763;48.730;9.136;2023-02-23T05:10:09;15.82;;;10.27;;
31112;SDS011;17763;48.730;9.136;2023-02-23T05:12:35;15.25;;;10.00;;
31112;SDS011;17763;48.730;9.136;2023-02-23T05:15:01;10.95;;;9.02;;
31112;SDS011;17763;48.730;9.136;2023-02-23T05:17:26;17.50;;;9.43;;
31112;SDS011;17763;48.730;9.136;2023-02-23T05:19:52;13.07;;;9.00;;
31112;SDS011;17763;48.730;9.136;2023-02-23T05:22:18;14.30;;;9.88;;
31112;SDS011;17763;48.730;9.136;2023-02-23T05:24:43;10.90;;;8.75;;
31112;SDS011;17763;48.730;9.136;2023-02-23T05:27:12;15.50;;;9.15;;
31112;SDS011;17763;48.730;9.136;2023-02-23T05:29:44;11.82;;;9.15;;
31112;SDS011;17763;48.730;9.136;2023-02-23T05:32:09;12.40;;;9.23;;
31112;SDS011;17763;48.730;9.136;2023-02-23T05:34:35;12.68;;;9.07;;
31112;SDS011;17763;48.730;9.136;2023-02-23T05:37:03;17.58;;;9.02;;
31112;SDS011;17763;48.730;9.136;2023-02-23T05:39:28;11.45;;;8.55;;
31112;SDS011;17763;48.730;9.136;2023-02-23T05:41:54;12.07;;;8.60;;
31112;SDS011;17763;48.730;9.136;2023-02-23T05:44:20;15.98;;;10.02;;
31112;SDS011;17763;48.730;9.136;2023-02-23T05:46:45;10.85;;;8.80;;
31112;SDS011;17763;48.730;9.136;2023-02-23T05:49:14;11.75;;;8.80;;
31112;SDS011;17763;48.730;9.136;2023-02-23T05:51:39;12.13;;;8.60;;
31112;SDS011;17763;48.730;9.136;2023-02-23T05:54:05;11.45;;;8.63;;
31112;SDS011;17763;48.730;9.136;2023-02-23T05:56:31;11.38;;;7.97;;
31112;SDS011;17763;48.730;9.136;2023-02-23T05:58:57;10.27;;;8.85;;
31112;SDS011;17763;48.730;9.136;2023-02-23T06:01:23;14.48;;;8.63;;
31112;SDS011;17763;48.730;9.136;2023-02-23T06:03:50;10.73;;;8.30;;
31112;SDS011;17763;48.730;9.136;2023-02-23T06:06:16;13.45;;;9.10;;
31112;SDS011;17763;48.730;9.136;2023-02-23T06:08:44;15.13;;;9.55;;
31112;SDS011;17763;48.730;9.136;2023-02-23T06:11:10;15.85;;;9.80;;
31112;SDS011;17763;48.730;9.136;2023-02-23T06:13:36;11.18;;;9.43;;
31112;SDS011;17763;48.730;9.136;2023-02-23T06:16:02;13.50;;;10.05;;
31112;SDS011;17763;48.730;9.136;2023-02-23T06:18:28;16.30;;;11.50;;
31112;SDS011;17763;48.730;9.136;2023-02-23T06:20:54;17.60;;;12.35;;
31112;SDS011;17763;48.730;9.136;2023-02-23T06:23:23;17.60;;;12.52;;
31112;SDS011;17763;48.730;9.136;2023-02-23T06:25:49;17.88;;;12.45;;
31112;SDS011;17763;48.730;9.136;2023-02-23T06:28:14;15.05;;;10.95;;
31112;SDS011;17763;48.730;9.136;2023-02-23T06:30:42;17.75;;;11.98;;
31112;SDS011;17763;48.730;9.136;2023-02-23T06:33:08;17.65;;;10.73;;
31112;SDS011;17763;48.730;9.136;2023-02-23T06:35:34;12.45;;;10.02;;
31112;SDS011;17763;48.730;9.136;2023-02-23T06:38:00;14.13;;;10.70;;
31112;SDS011;17763;48.730;9.136;2023-02-23T06:40:26;13.90;;;9.55;;
31112;SDS011;17763;48.730;9.136;2023-02-23T06:42:53;15.90;;;10.48;;
31112;SDS011;17763;48.730;9.136;2023-02-23T06:45:18;15.20;;;10.30;;
31112;SDS011;17763;48.730;9.136;2023-02-23T06:47:45;16.15;;;9.90;;
31112;SDS011;17763;48.730;9.136;2023-02-23T06:50:11;17.00;;;10.27;;
31112;SDS011;17763;48.730;9.136;2023-02-23T06:52:36;14.05;;;9.80;;
31112;SDS011;17763;48.730;9.136;2023-02-23T06:55:02;13.00;;;8.73;;
31112;SDS011;17763;48.730;9.136;2023-02-23T06:57:29;17.80;;;10.65;;
31112;SDS011;17763;48.730;9.136;2023-02-23T06:59:54;14.82;;;10.90;;
31112;SDS011;17763;48.730;9.136;2023-02-23T07:02:20;14.10;;;10.20;;
31112;SDS011;17763;48.730;9.136;2023-02-23T07:04:49;15.65;;;10.68;;
31112;SDS011;17763;48.730;9.136;2023-02-23T07:07:14;14.77;;;9.75;;
31112;SDS011;17763;48.730;9.136;2023-02-23T07:09:40;13.88;;;9.82;;
31112;SDS011;17763;48.730;9.136;2023-02-23T07:12:07;12.48;;;9.10;;
31112;SDS011;17763;48.730;9.136;2023-02-23T07:14:33;15.88;;;9.48;;
31112;SDS011;17763;48.730;9.136;2023-02-23T07:16:59;12.80;;;10.65;;
31112;SDS011;17763;48.730;9.136;2023-02-23T07:19:25;16.00;;;10.55;;
31112;SDS011;17763;48.730;9.136;2023-02-23T07:21:53;17.52;;;10.68;;
31112;SDS011;17763;48.730;9.136;2023-02-23T07:24:19;12.70;;;9.68;;
31112;SDS011;17763;48.730;9.136;2023-02-23T07:26:48;14.48;;;10.68;;
31112;SDS011;17763;48.730;9.136;2023-02-23T07:29:16;11.90;;;9.52;;
31112;SDS011;17763;48.730;9.136;2023-02-23T07:31:44;12.82;;;9.75;;
31112;SDS011;17763;48.730;9.136;2023-02-23T07:34:13;12.30;;;9.70;;
31112;SDS011;17763;48.730;9.136;2023-02-23T07:36:42;14.20;;;9.70;;
31112;SDS011;17763;48.730;9.136;2023-02-23T07:39:08;12.30;;;9.35;;
31112;SDS011;17763;48.730;9.136;2023-02-23T07:41:36;13.32;;;10.20;;
31112;SDS011;17763;48.730;9.136;2023-02-23T07:44:02;13.35;;;10.57;;
31112;SDS011;17763;48.730;9.136;2023-02-23T07:46:30;14.07;;;9.50;;
31112;SDS011;17763;48.730;9.136;2023-02-23T07:48:56;12.80;;;9.27;;
31112;SDS011;17763;48.730;9.136;2023-02-23T07:51:22;11.75;;;8.50;;
31112;SDS011;17763;48.730;9.136;2023-02-23T07:53:51;13.20;;;9.85;;
31112;SDS011;17763;48.730;9.136;2023-02-23T07:56:19;10.70;;;8.15;;
31112;SDS011;17763;48.730;9.136;2023-02-23T07:58:45;11.38;;;8.90;;
31112;SDS011;17763;48.730;9.136;2023-02-23T08:01:11;14.57;;;9.52;;
31112;SDS011;17763;48.730;9.136;2023-02-23T08:06:13;12.52;;;8.45;;
31112;SDS011;17763;48.730;9.136;2023-02-23T08:08:41;12.48;;;7.80;;
31112;SDS011;17763;48.730;9.136;2023-02-23T08:11:10;13.25;;;8.23;;
31112;SDS011;17763;48.730;9.136;2023-02-23T08:13:36;10.73;;;8.30;;
31112;SDS011;17763;48.730;9.136;2023-02-23T08:16:02;10.63;;;8.38;;
31112;SDS011;17763;48.730;9.136;2023-02-23T08:18:28;12.85;;;8.55;;
31112;SDS011;17763;48.730;9.136;2023-02-23T08:20:58;11.27;;;7.53;;
31112;SDS011;17763;48.730;9.136;2023-02-23T08:23:28;11.80;;;8.07;;
31112;SDS011;17763;48.730;9.136;2023-02-23T08:25:54;10.35;;;7.28;;
31112;SDS011;17763;48.730;9.136;2023-02-23T08:28:23;13.18;;;7.63;;
31112;SDS011;17763;48.730;9.136;2023-02-23T08:30:52;9.98;;;7.57;;
31112;SDS011;17763;48.730;9.136;2023-02-23T08:33:19;9.18;;;7.68;;
31112;SDS011;17763;48.730;9.136;2023-02-23T08:35:45;11.23;;;7.90;;
31112;SDS011;17763;48.730;9.136;2023-02-23T08:38:11;11.05;;;8.70;;
31112;SDS011;17763;48.730;9.136;2023-02-23T08:40:39;12.95;;;7.00;;
31112;SDS011;17763;48.730;9.136;2023-02-23T08:43:05;11.23;;;7.13;;
31112;SDS011;17763;48.730;9.136;2023-02-23T08:45:31;11.07;;;8.23;;
31112;SDS011;17763;48.730;9.136;2023-02-23T08:47:59;9.65;;;7.07;;
31112;SDS011;17763;48.730;9.136;2023-02-23T08:50:25;11.25;;;6.90;;
31112;SDS011;17763;48.730;9.136;2023-02-23T08:52:51;11.27;;;7.10;;
31112;SDS011;17763;48.730;9.136;2023-02-23T08:55:17;9.75;;;7.22;;
31112;SDS011;17763;48.730;9.136;2023-02-23T08:57:46;13.00;;;7.30;;
31112;SDS011;17763;48.730;9.136;2023-02-23T09:00:12;11.13;;;6.68;;
31112;SDS011;17763;48.730;9.136;2023-02-23T09:02:41;10.75;;;6.65;;
31112;SDS011;17763;48.730;9.136;2023-02-23T09:05:07;13.85;;;5.93;;
31112;SDS011;17763;48.730;9.136;2023-02-23T09:07:34;14.70;;;7.78;;
31112;SDS011;17763;48.730;9.136;2023-02-23T09:10:04;9.35;;;5.70;;
31112;SDS011;17763;48.730;9.136;2023-02-23T09:12:31;9.52;;;6.32;;
31112;SDS011;17763;48.730;9.136;2023-02-23T09:14:57;11.88;;;5.70;;
31112;SDS011;17763;48.730;9.136;2023-02-23T09:17:22;11.25;;;5.60;;
31112;SDS011;17763;48.730;9.136;2023-02-23T09:19:49;11.25;;;6.93;;
31112;SDS011;17763;48.730;9.136;2023-02-23T09:22:14;8.20;;;5.15;;
31112;SDS011;17763;48.730;9.136;2023-02-23T09:24:42;10.52;;;6.25;;
31112;SDS011;17763;48.730;9.136;2023-02-23T09:27:08;7.35;;;5.90;;
31112;SDS011;17763;48.730;9.136;2023-02-23T09:29:36;7.78;;;5.30;;
31112;SDS011;17763;48.730;9.136;2023-02-23T09:32:05;10.07;;;4.75;;
31112;SDS011;17763;48.730;9.136;2023-02-23T09:34:32;9.50;;;5.18;;
31112;SDS011;17763;48.730;9.136;2023-02-23T09:37:03;8.35;;;5.15;;
31112;SDS011;17763;48.730;9.136;2023-02-23T09:39:30;7.43;;;5.55;;
31112;SDS011;17763;48.730;9.136;2023-02-23T09:49:45;8.07;;;6.15;;
31112;SDS011;17763;48.730;9.136;2023-02-23T09:52:16;8.63;;;5.10;;
31112;SDS011;17763;48.730;9.136;2023-02-23T09:54:46;7.28;;;4.78;;
31112;SDS011;17763;48.730;9.136;2023-02-23T09:57:17;9.05;;;5.35;;
31112;SDS011;17763;48.730;9.136;2023-02-23T09:59:48;6.85;;;4.30;;
31112;SDS011;17763;48.730;9.136;2023-02-23T10:02:18;7.07;;;4.28;;
31112;SDS011;17763;48.730;9.136;2023-02-23T10:05:07;6.05;;;4.07;;
31112;SDS011;17763;48.730;9.136;2023-02-23T10:07:49;7.05;;;4.50;;
31112;SDS011;17763;48.730;9.136;2023-02-23T10:13:08;6.18;;;4.03;;
31112;SDS011;17763;48.730;9.136;2023-02-23T10:15:39;7.70;;;4.70;;
31112;SDS011;17763;48.730;9.136;2023-02-23T10:26:42;10.50;;;4.25;;
31112;SDS011;17763;48.730;9.136;2023-02-23T10:29:25;7.88;;;4.03;;
31112;SDS011;17763;48.730;9.136;2023-02-23T10:31:59;4.38;;;3.55;;
31112;SDS011;17763;48.730;9.136;2023-02-23T10:34:43;10.75;;;4.00;;
31112;SDS011;17763;48.730;9.136;2023-02-23T10:37:12;5.10;;;4.32;;
31112;SDS011;17763;48.730;9.136;2023-02-23T10:39:40;11.88;;;3.95;;
31112;SDS011;17763;48.730;9.136;2023-02-23T10:42:11;8.30;;;3.42;;
31112;SDS011;17763;48.730;9.136;2023-02-23T10:44:41;6.70;;;4.13;;
31112;SDS011;17763;48.730;9.136;2023-02-23T10:47:15;8.25;;;4.22;;
31112;SDS011;17763;48.730;9.136;2023-02-23T10:52:10;6.22;;;3.35;;
31112;SDS011;17763;48.730;9.136;2023-02-23T10:57:09;8.18;;;3.30;;
31112;SDS011;17763;48.730;9.136;2023-02-23T10:59:40;5.55;;;2.95;;
31112;SDS011;17763;48.730;9.136;2023-02-23T11:02:23;9.45;;;3.75;;
31112;SDS011;17763;48.730;9.136;2023-02-23T11:04:51;5.40;;;3.13;;
31112;SDS011;17763;48.730;9.136;2023-02-23T11:07:22;4.72;;;2.60;;
31112;SDS011;17763;48.730;9.136;2023-02-23T11:09:49;5.43;;;3.40;;
31112;SDS011;17763;48.730;9.136;2023-02-23T11:14:56;7.68;;;3.15;;
31112;SDS011;17763;48.730;9.136;2023-02-23T11:17:24;8.00;;;3.17;;
31112;SDS011;17763;48.730;9.136;2023-02-23T11:19:50;8.30;;;3.05;;
31112;SDS011;17763;48.730;9.136;2023-02-23T11:22:50;6.03;;;3.00;;
31112;SDS011;17763;48.730;9.136;2023-02-23T11:25:19;6.93;;;4.13;;
31112;SDS011;17763;48.730;9.136;2023-02-23T11:27:54;9.60;;;3.13;;
31112;SDS011;17763;48.730;9.136;2023-02-23T11:30:30;6.55;;;3.15;;
31112;SDS011;17763;48.730;9.136;2023-02-23T11:33:01;8.70;;;4.10;;
31112;SDS011;17763;48.730;9.136;2023-02-23T11:35:37;8.18;;;3.50;;
31112;SDS011;17763;48.730;9.136;2023-02-23T11:38:13;6.03;;;2.95;;
31112;SDS011;17763;48.730;9.136;2023-02-23T11:41:00;8.18;;;3.15;;
31112;SDS011;17763;48.730;9.136;2023-02-23T11:43:28;6.18;;;3.08;;
31112;SDS011;17763;48.730;9.136;2023-02-23T11:45:55;8.48;;;3.60;;
31112;SDS011;17763;48.730;9.136;2023-02-23T11:48:45;4.03;;;2.83;;
31112;SDS011;17763;48.730;9.136;2023-02-23T11:51:37;10.07;;;3.00;;
31112;SDS011;17763;48.730;9.136;2023-02-23T11:54:05;4.50;;;2.55;;
31112;SDS011;17763;48.730;9.136;2023-02-23T11:56:34;4.25;;;2.75;;
31112;SDS011;17763;48.730;9.136;2023-02-23T11:59:02;8.00;;;3.20;;
31112;SDS011;17763;48.730;9.136;2023-02-23T12:04:30;4.60;;;3.03;;
31112;SDS011;17763;48.730;9.136;2023-02-23T12:10:13;5.28;;;3.75;;
31112;SDS011;17763;48.730;9.136;2023-02-23T12:13:01;6.97;;;2.92;;
31112;SDS011;17763;48.730;9.136;2023-02-23T12:21:38;4.25;;;2.80;;
31112;SDS011;17763;48.730;9.136;2023-02-23T12:29:57;13.80;;;5.90;;
31112;SDS011;17763;48.730;9.136;2023-02-23T12:35:15;8.60;;;5.65;;
31112;SDS011;17763;48.730;9.136;2023-02-23T12:37:50;8.80;;;6.55;;
31112;SDS011;17763;48.730;9.136;2023-02-23T12:42:57;9.20;;;7.07;;
31112;SDS011;17763;48.730;9.136;2023-02-23T12:45:48;11.20;;;7.20;;
31112;SDS011;17763;48.730;9.136;2023-02-23T12:48:37;10.57;;;7.65;;
31112;SDS011;17763;48.730;9.136;2023-02-23T12:53:57;13.95;;;8.10;;
31112;SDS011;17763;48.730;9.136;2023-02-23T13:01:49;13.32;;;7.97;;
31112;SDS011;17763;48.730;9.136;2023-02-23T13:10:34;12.75;;;7.00;;
31112;SDS011;17763;48.730;9.136;2023-02-23T13:15:58;9.68;;;6.85;;
31112;SDS011;17763;48.730;9.136;2023-02-23T13:18:58;10.32;;;6.55;;
31112;SDS011;17763;48.730;9.136;2023-02-23T13:21:36;11.55;;;6.50;;
31112;SDS011;17763;48.730;9.136;2023-02-23T13:24:25;10.63;;;5.65;;
31112;SDS011;17763;48.730;9.136;2023-02-23T13:29:46;10.15;;;7.25;;
31112;SDS011;17763;48.730;9.136;2023-02-23T13:32:15;11.88;;;7.32;;
31112;SDS011;17763;48.730;9.136;2023-02-23T13:34:50;10.13;;;5.97;;
31112;SDS011;17763;48.730;9.136;2023-02-23T13:37:29;12.55;;;6.60;;
31112;SDS011;17763;48.730;9.136;2023-02-23T13:43:12;8.43;;;5.75;;
31112;SDS011;17763;48.730;9.136;2023-02-23T13:49:10;8.18;;;5.40;;
31112;SDS011;17763;48.730;9.136;2023-02-23T13:52:00;15.75;;;6.05;;
31112;SDS011;17763;48.730;9.136;2023-02-23T13:54:37;10.73;;;5.60;;
31112;SDS011;17763;48.730;9.136;2023-02-23T13:57:15;13.07;;;6.40;;
31112;SDS011;17763;48.730;9.136;2023-02-23T13:59:46;13.05;;;6.15;;
31112;SDS011;17763;48.730;9.136;2023-02-23T14:05:00;12.77;;;6.00;;
31112;SDS011;17763;48.730;9.136;2023-02-23T14:07:46;9.77;;;6.63;;
31112;SDS011;17763;48.730;9.136;2023-02-23T14:34:57;10.38;;;6.60;;
31112;SDS011;17763;48.730;9.136;2023-02-23T14:39:49;11.35;;;6.93;;
31112;SDS011;17763;48.730;9.136;2023-02-23T14:42:21;14.13;;;6.53;;
31112;SDS011;17763;48.730;9.136;2023-02-23T14:44:49;12.10;;;7.22;;
31112;SDS011;17763;48.730;9.136;2023-02-23T14:47:19;11.20;;;6.65;;
31112;SDS011;17763;48.730;9.136;2023-02-23T14:52:27;11.68;;;6.18;;
31112;SDS011;17763;48.730;9.136;2023-02-23T14:55:07;9.05;;;6.03;;
31112;SDS011;17763;48.730;9.136;2023-02-23T14:57:36;9.60;;;5.80;;
31112;SDS011;17763;48.730;9.136;2023-02-23T15:00:11;8.85;;;5.78;;
31112;SDS011;17763;48.730;9.136;2023-02-23T15:02:53;8.18;;;6.32;;
31112;SDS011;17763;48.730;9.136;2023-02-23T15:08:22;7.55;;;4.78;;
31112;SDS011;17763;48.730;9.136;2023-02-23T15:11:11;4.63;;;3.83;;
31112;SDS011;17763;48.730;9.136;2023-02-23T15:13:37;7.90;;;3.30;;
31112;SDS011;17763;48.730;9.136;2023-02-23T15:16:07;6.53;;;3.65;;
31112;SDS011;17763;48.730;9.136;2023-02-23T15:18:46;7.32;;;3.35;;
31112;SDS011;17763;48.730;9.136;2023-02-23T15:21:17;8.98;;;3.20;;
31112;SDS011;17763;48.730;9.136;2023-02-23T15:23:50;6.82;;;3.13;;
31112;SDS011;17763;48.730;9.136;2023-02-23T15:26:29;8.18;;;3.45;;
31112;SDS011;17763;48.730;9.136;2023-02-23T15:29:07;4.35;;;2.25;;
31112;SDS011;17763;48.730;9.136;2023-02-23T15:31:44;6.40;;;3.40;;
31112;SDS011;17763;48.730;9.136;2023-02-23T15:34:21;4.53;;;2.90;;
31112;SDS011;17763;48.730;9.136;2023-02-23T15:39:38;7.82;;;3.55;;
31112;SDS011;17763;48.730;9.136;2023-02-23T15:42:14;5.97;;;3.25;;
31112;SDS011;17763;48.730;9.136;2023-02-23T15:44:42;5.22;;;3.83;;
31112;SDS011;17763;48.730;9.136;2023-02-23T15:47:11;3.92;;;3.40;;
31112;SDS011;17763;48.730;9.136;2023-02-23T15:50:02;5.88;;;3.55;;
31112;SDS011;17763;48.730;9.136;2023-02-23T15:52:38;7.32;;;3.67;;
31112;SDS011;17763;48.730;9.136;2023-02-23T15:55:14;4.80;;;3.42;;
31112;SDS011;17763;48.730;9.136;2023-02-23T15:57:51;5.82;;;3.30;;
31112;SDS011;17763;48.730;9.136;2023-02-23T16:00:31;5.45;;;3.67;;
31112;SDS011;17763;48.730;9.136;2023-02-23T16:03:01;8.60;;;4.20;;
31112;SDS011;17763;48.730;9.136;2023-02-23T16:05:30;7.78;;;4.63;;
31112;SDS011;17763;48.730;9.136;2023-02-23T16:08:22;6.03;;;4.38;;
31112;SDS011;17763;48.730;9.136;2023-02-23T16:10:52;7.47;;;3.95;;
31112;SDS011;17763;48.730;9.136;2023-02-23T16:13:26;10.35;;;4.80;;
31112;SDS011;17763;48.730;9.136;2023-02-23T16:15:55;10.45;;;4.97;;
31112;SDS011;17763;48.730;9.136;2023-02-23T16:18:21;9.23;;;5.57;;
31112;SDS011;17763;48.730;9.136;2023-02-23T16:21:05;10.55;;;5.55;;
31112;SDS011;17763;48.730;9.136;2023-02-23T16:23:51;8.85;;;6.38;;
31112;SDS011;17763;48.730;9.136;2023-02-23T16:26:25;9.50;;;5.70;;
31112;SDS011;17763;48.730;9.136;2023-02-23T16:29:01;9.73;;;5.72;;
31112;SDS011;17763;48.730;9.136;2023-02-23T16:37:27;8.32;;;6.65;;
31112;SDS011;17763;48.730;9.136;2023-02-23T16:39:53;8.95;;;6.78;;
31112;SDS011;17763;48.730;9.136;2023-02-23T16:42:27;11.70;;;7.05;;
31112;SDS011;17763;48.730;9.136;2023-02-23T16:44:59;9.07;;;7.18;;
31112;SDS011;17763;48.730;9.136;2023-02-23T16:47:29;13.18;;;6.55;;
31112;SDS011;17763;48.730;9.136;2023-02-23T16:52:45;8.70;;;5.78;;
31112;SDS011;17763;48.730;9.136;2023-02-23T16:55:16;12.75;;;6.72;;
31112;SDS011;17763;48.730;9.136;2023-02-23T16:57:47;11.57;;;5.78;;
31112;SDS011;17763;48.730;9.136;2023-02-23T17:00:23;13.02;;;5.88;;
31112;SDS011;17763;48.730;9.136;2023-02-23T17:02:56;9.27;;;5.50;;
31112;SDS011;17763;48.730;9.136;2023-02-23T17:05:24;7.65;;;5.60;;
31112;SDS011;17763;48.730;9.136;2023-02-23T17:07:50;6.57;;;5.10;;
31112;SDS011;17763;48.730;9.136;2023-02-23T17:10:18;7.30;;;5.70;;
31112;SDS011;17763;48.730;9.136;2023-02-23T17:12:57;10.73;;;5.40;;
31112;SDS011;17763;48.730;9.136;2023-02-23T17:15:28;12.48;;;5.90;;
31112;SDS011;17763;48.730;9.136;2023-02-23T17:18:02;8.90;;;5.38;;
31112;SDS011;17763;48.730;9.136;2023-02-23T17:20:28;12.35;;;5.78;;
31112;SDS011;17763;48.730;9.136;2023-02-23T17:22:57;8.10;;;5.65;;
31112;SDS011;17763;48.730;9.136;2023-02-23T17:25:24;8.38;;;6.03;;
31112;SDS011;17763;48.730;9.136;2023-02-23T17:27:55;8.52;;;5.82;;
31112;SDS011;17763;48.730;9.136;2023-02-23T17:30:21;8.77;;;5.90;;
31112;SDS011;17763;48.730;9.136;2023-02-23T17:32:47;11.68;;;6.68;;
31112;SDS011;17763;48.730;9.136;2023-02-23T17:35:15;8.60;;;6.55;;
31112;SDS011;17763;48.730;9.136;2023-02-23T17:37:41;13.27;;;7.05;;
31112;SDS011;17763;48.730;9.136;2023-02-23T17:40:09;14.68;;;6.65;;
31112;SDS011;17763;48.730;9.136;2023-02-23T17:42:40;10.32;;;6.60;;
31112;SDS011;17763;48.730;9.136;2023-02-23T17:45:06;12.73;;;7.72;;
31112;SDS011;17763;48.730;9.136;2023-02-23T17:47:33;12.93;;;7.60;;
31112;SDS011;17763;48.730;9.136;2023-02-23T17:50:00;12.18;;;7.15;;
31112;SDS011;17763;48.730;9.136;2023-02-23T17:52:26;11.57;;;7.50;;
31112;SDS011;17763;48.730;9.136;2023-02-23T17:54:53;11.98;;;8.02;;
31112;SDS011;17763;48.730;9.136;2023-02-23T17:57:22;14.90;;;8.70;;